sensor_id;sensor_type;location;lat;lon;timestamp;P1;durP1;ratioP1;P2;durP2;ratioP2
8213;SDS011;4148;47.974;7.824;2023-05-23T00:01:11;13.00;;;11.03;;
8213;SDS011;4148;47.974;7.824;2023-05-23T00:03:42;14.00;;;11.23;;
8213;SDS011;4148;47.974;7.824;2023-05-23T00:06:10;12.43;;;11.13;;
8213;SDS011;4148;47.974;7.824;2023-05-23T00:08:39;14.60;;;12.30;;
8213;SDS011;4148;47.974;7.824;2023-05-23T00:11:07;12.73;;;10.77;;
8213;SDS011;4148;47.974;7.824;2023-05-23T00:13:35;12.60;;;10.70;;
8213;SDS011;4148;47.974;7.824;2023-05-23T00:16:07;12.43;;;11.13;;
8213;SDS011;4148;47.974;7.824;2023-05-23T00:18:35;16.40;;;12.90;;
8213;SDS011;4148;47.974;7.824;2023-05-23T00:21:05;12.70;;;11.33;;
8213;SDS011;4148;47.974;7.824;2023-05-23T00:23:33;15.80;;;11.47;;
8213;SDS011;4148;47.974;7.824;2023-05-23T00:26:01;12.40;;;11.10;;
8213;SDS011;4148;47.974;7.824;2023-05-23T00:28:29;12.83;;;10.70;;
8213;SDS011;4148;47.974;7.824;2023-05-23T00:30:56;13.73;;;11.40;;
8213;SDS011;4148;47.974;7.824;2023-05-23T00:33:26;12.07;;;10.63;;
8213;SDS011;4148;47.974;7.824;2023-05-23T00:35:54;13.30;;;11.00;;
8213;SDS011;4148;47.974;7.824;2023-05-23T00:38:22;14.03;;;11.47;;
8213;SDS011;4148;47.974;7.824;2023-05-23T00:40:51;13.00;;;10.90;;
8213;SDS011;4148;47.974;7.824;2023-05-23T00:43:19;13.00;;;11.70;;
8213;SDS011;4148;47.974;7.824;2023-05-23T00:45:48;14.33;;;12.17;;
8213;SDS011;4148;47.974;7.824;2023-05-23T00:48:15;14.70;;;11.63;;
8213;SDS011;4148;47.974;7.824;2023-05-23T00:50:45;13.67;;;11.10;;
8213;SDS011;4148;47.974;7.824;2023-05-23T00:53:13;15.10;;;11.13;;
8213;SDS011;4148;47.974;7.824;2023-05-23T00:55:42;15.90;;;11.57;;
8213;SDS011;4148;47.974;7.824;2023-05-23T00:58:10;16.10;;;12.27;;
8213;SDS011;4148;47.974;7.824;2023-05-23T01:00:40;13.00;;;10.73;;
8213;SDS011;4148;47.974;7.824;2023-05-23T01:03:10;15.90;;;11.50;;
8213;SDS011;4148;47.974;7.824;2023-05-23T01:05:43;14.03;;;12.17;;
8213;SDS011;4148;47.974;7.824;2023-05-23T01:08:12;15.90;;;12.00;;
8213;SDS011;4148;47.974;7.824;2023-05-23T01:10:41;12.37;;;10.80;;
8213;SDS011;4148;47.974;7.824;2023-05-23T01:13:12;13.10;;;11.37;;
8213;SDS011;4148;47.974;7.824;2023-05-23T01:15:47;13.70;;;11.40;;
8213;SDS011;4148;47.974;7.824;2023-05-23T01:18:20;12.90;;;11.40;;
8213;SDS011;4148;47.974;7.824;2023-05-23T01:20:53;12.73;;;11.43;;
8213;SDS011;4148;47.974;7.824;2023-05-23T01:23:27;13.57;;;11.20;;
8213;SDS011;4148;47.974;7.824;2023-05-23T01:26:12;14.67;;;11.10;;
8213;SDS011;4148;47.974;7.824;2023-05-23T01:28:53;15.67;;;12.17;;
8213;SDS011;4148;47.974;7.824;2023-05-23T01:31:31;13.13;;;10.77;;
8213;SDS011;4148;47.974;7.824;2023-05-23T01:34:02;16.03;;;12.10;;
8213;SDS011;4148;47.974;7.824;2023-05-23T01:36:32;12.80;;;11.50;;
8213;SDS011;4148;47.974;7.824;2023-05-23T01:39:01;17.00;;;11.07;;
8213;SDS011;4148;47.974;7.824;2023-05-23T01:41:29;13.43;;;11.23;;
8213;SDS011;4148;47.974;7.824;2023-05-23T01:43:58;13.27;;;11.87;;
8213;SDS011;4148;47.974;7.824;2023-05-23T01:46:26;15.57;;;12.13;;
8213;SDS011;4148;47.974;7.824;2023-05-23T01:48:56;14.13;;;11.97;;
8213;SDS011;4148;47.974;7.824;2023-05-23T01:51:24;13.47;;;11.83;;
8213;SDS011;4148;47.974;7.824;2023-05-23T01:53:53;14.97;;;12.97;;
8213;SDS011;4148;47.974;7.824;2023-05-23T01:56:22;17.93;;;11.43;;
8213;SDS011;4148;47.974;7.824;2023-05-23T01:58:51;17.00;;;11.83;;
8213;SDS011;4148;47.974;7.824;2023-05-23T02:01:21;13.03;;;11.60;;
8213;SDS011;4148;47.974;7.824;2023-05-23T02:03:49;12.53;;;11.23;;
8213;SDS011;4148;47.974;7.824;2023-05-23T02:06:17;13.20;;;11.43;;
8213;SDS011;4148;47.974;7.824;2023-05-23T02:08:45;12.80;;;11.33;;
8213;SDS011;4148;47.974;7.824;2023-05-23T02:11:13;15.13;;;11.33;;
8213;SDS011;4148;47.974;7.824;2023-05-23T02:13:41;13.03;;;11.43;;
8213;SDS011;4148;47.974;7.824;2023-05-23T02:16:08;14.00;;;12.03;;
8213;SDS011;4148;47.974;7.824;2023-05-23T02:18:38;14.03;;;12.23;;
8213;SDS011;4148;47.974;7.824;2023-05-23T02:21:06;14.40;;;11.87;;
8213;SDS011;4148;47.974;7.824;2023-05-23T02:23:33;13.80;;;12.30;;
8213;SDS011;4148;47.974;7.824;2023-05-23T02:26:01;13.87;;;12.33;;
8213;SDS011;4148;47.974;7.824;2023-05-23T02:28:29;13.30;;;11.50;;
8213;SDS011;4148;47.974;7.824;2023-05-23T02:30:57;14.63;;;11.50;;
8213;SDS011;4148;47.974;7.824;2023-05-23T02:33:25;14.63;;;11.40;;
8213;SDS011;4148;47.974;7.824;2023-05-23T02:35:54;14.90;;;11.23;;
8213;SDS011;4148;47.974;7.824;2023-05-23T02:38:22;13.63;;;11.97;;
8213;SDS011;4148;47.974;7.824;2023-05-23T02:40:52;13.87;;;11.70;;
8213;SDS011;4148;47.974;7.824;2023-05-23T02:43:21;13.70;;;11.20;;
8213;SDS011;4148;47.974;7.824;2023-05-23T02:45:49;13.50;;;12.10;;
8213;SDS011;4148;47.974;7.824;2023-05-23T02:48:17;14.10;;;12.17;;
8213;SDS011;4148;47.974;7.824;2023-05-23T02:50:45;16.07;;;12.40;;
8213;SDS011;4148;47.974;7.824;2023-05-23T02:53:14;15.40;;;13.70;;
8213;SDS011;4148;47.974;7.824;2023-05-23T02:55:43;17.07;;;13.70;;
8213;SDS011;4148;47.974;7.824;2023-05-23T02:58:11;16.23;;;13.20;;
8213;SDS011;4148;47.974;7.824;2023-05-23T03:00:39;14.80;;;12.57;;
8213;SDS011;4148;47.974;7.824;2023-05-23T03:03:09;15.17;;;13.57;;
8213;SDS011;4148;47.974;7.824;2023-05-23T03:05:37;15.97;;;13.30;;
8213;SDS011;4148;47.974;7.824;2023-05-23T03:08:05;18.83;;;13.83;;
8213;SDS011;4148;47.974;7.824;2023-05-23T03:10:35;15.87;;;13.20;;
8213;SDS011;4148;47.974;7.824;2023-05-23T03:13:03;15.90;;;13.20;;
8213;SDS011;4148;47.974;7.824;2023-05-23T03:15:31;13.33;;;11.93;;
8213;SDS011;4148;47.974;7.824;2023-05-23T03:17:59;17.37;;;13.73;;
8213;SDS011;4148;47.974;7.824;2023-05-23T03:20:27;18.00;;;13.67;;
8213;SDS011;4148;47.974;7.824;2023-05-23T03:22:55;14.00;;;12.50;;
8213;SDS011;4148;47.974;7.824;2023-05-23T03:25:23;15.67;;;13.93;;
8213;SDS011;4148;47.974;7.824;2023-05-23T03:27:53;15.97;;;13.80;;
8213;SDS011;4148;47.974;7.824;2023-05-23T03:30:21;14.27;;;12.77;;
8213;SDS011;4148;47.974;7.824;2023-05-23T03:32:49;16.67;;;13.00;;
8213;SDS011;4148;47.974;7.824;2023-05-23T03:35:19;16.47;;;14.00;;
8213;SDS011;4148;47.974;7.824;2023-05-23T03:37:47;20.60;;;14.10;;
8213;SDS011;4148;47.974;7.824;2023-05-23T03:40:15;15.07;;;12.80;;
8213;SDS011;4148;47.974;7.824;2023-05-23T03:42:43;15.30;;;13.47;;
8213;SDS011;4148;47.974;7.824;2023-05-23T03:45:12;16.17;;;14.43;;
8213;SDS011;4148;47.974;7.824;2023-05-23T03:47:41;17.03;;;14.27;;
8213;SDS011;4148;47.974;7.824;2023-05-23T03:50:09;15.93;;;13.47;;
8213;SDS011;4148;47.974;7.824;2023-05-23T03:52:37;14.63;;;13.13;;
8213;SDS011;4148;47.974;7.824;2023-05-23T03:55:05;18.13;;;14.20;;
8213;SDS011;4148;47.974;7.824;2023-05-23T03:57:34;16.20;;;13.73;;
8213;SDS011;4148;47.974;7.824;2023-05-23T04:00:03;15.77;;;14.07;;
8213;SDS011;4148;47.974;7.824;2023-05-23T04:02:33;16.53;;;13.80;;
8213;SDS011;4148;47.974;7.824;2023-05-23T04:05:01;18.50;;;13.73;;
8213;SDS011;4148;47.974;7.824;2023-05-23T04:07:29;15.50;;;13.90;;
8213;SDS011;4148;47.974;7.824;2023-05-23T04:10:00;16.80;;;14.37;;
8213;SDS011;4148;47.974;7.824;2023-05-23T04:12:28;14.87;;;13.27;;
8213;SDS011;4148;47.974;7.824;2023-05-23T04:14:56;15.67;;;13.97;;
8213;SDS011;4148;47.974;7.824;2023-05-23T04:17:25;16.77;;;13.93;;
8213;SDS011;4148;47.974;7.824;2023-05-23T04:19:57;14.93;;;13.40;;
8213;SDS011;4148;47.974;7.824;2023-05-23T04:22:26;15.13;;;13.53;;
8213;SDS011;4148;47.974;7.824;2023-05-23T04:24:54;15.60;;;13.90;;
8213;SDS011;4148;47.974;7.824;2023-05-23T04:27:21;19.07;;;15.20;;
8213;SDS011;4148;47.974;7.824;2023-05-23T04:29:51;16.80;;;14.30;;
8213;SDS011;4148;47.974;7.824;2023-05-23T04:32:19;17.40;;;13.83;;
8213;SDS011;4148;47.974;7.824;2023-05-23T04:34:48;18.07;;;15.37;;
8213;SDS011;4148;47.974;7.824;2023-05-23T04:37:18;18.33;;;14.37;;
8213;SDS011;4148;47.974;7.824;2023-05-23T04:39:51;17.40;;;14.60;;
8213;SDS011;4148;47.974;7.824;2023-05-23T04:42:19;15.83;;;13.70;;
8213;SDS011;4148;47.974;7.824;2023-05-23T04:44:50;16.30;;;14.00;;
8213;SDS011;4148;47.974;7.824;2023-05-23T04:47:18;14.90;;;13.27;;
8213;SDS011;4148;47.974;7.824;2023-05-23T04:49:46;17.73;;;13.83;;
8213;SDS011;4148;47.974;7.824;2023-05-23T04:52:14;15.33;;;13.73;;
8213;SDS011;4148;47.974;7.824;2023-05-23T04:54:45;15.87;;;14.17;;
8213;SDS011;4148;47.974;7.824;2023-05-23T04:57:14;15.80;;;14.17;;
8213;SDS011;4148;47.974;7.824;2023-05-23T04:59:42;16.93;;;13.00;;
8213;SDS011;4148;47.974;7.824;2023-05-23T05:02:10;17.43;;;14.10;;
8213;SDS011;4148;47.974;7.824;2023-05-23T05:04:37;17.70;;;14.40;;
8213;SDS011;4148;47.974;7.824;2023-05-23T05:07:06;16.63;;;14.17;;
8213;SDS011;4148;47.974;7.824;2023-05-23T05:09:34;17.57;;;14.80;;
8213;SDS011;4148;47.974;7.824;2023-05-23T05:12:03;18.17;;;15.40;;
8213;SDS011;4148;47.974;7.824;2023-05-23T05:14:31;18.57;;;15.57;;
8213;SDS011;4148;47.974;7.824;2023-05-23T05:16:59;16.90;;;14.63;;
8213;SDS011;4148;47.974;7.824;2023-05-23T05:19:28;22.63;;;15.83;;
8213;SDS011;4148;47.974;7.824;2023-05-23T05:21:56;20.00;;;16.03;;
8213;SDS011;4148;47.974;7.824;2023-05-23T05:24:25;23.50;;;18.60;;
8213;SDS011;4148;47.974;7.824;2023-05-23T05:26:54;20.40;;;17.13;;
8213;SDS011;4148;47.974;7.824;2023-05-23T05:29:24;25.10;;;19.80;;
8213;SDS011;4148;47.974;7.824;2023-05-23T05:31:52;25.53;;;19.40;;
8213;SDS011;4148;47.974;7.824;2023-05-23T05:34:20;31.40;;;23.77;;
8213;SDS011;4148;47.974;7.824;2023-05-23T05:36:48;32.13;;;23.00;;
8213;SDS011;4148;47.974;7.824;2023-05-23T05:39:22;32.33;;;22.17;;
8213;SDS011;4148;47.974;7.824;2023-05-23T05:41:50;32.37;;;24.00;;
8213;SDS011;4148;47.974;7.824;2023-05-23T05:44:18;28.37;;;21.53;;
8213;SDS011;4148;47.974;7.824;2023-05-23T05:46:47;29.90;;;23.57;;
8213;SDS011;4148;47.974;7.824;2023-05-23T05:49:15;32.23;;;22.27;;
8213;SDS011;4148;47.974;7.824;2023-05-23T05:51:43;29.90;;;23.10;;
8213;SDS011;4148;47.974;7.824;2023-05-23T05:54:11;25.57;;;20.60;;
8213;SDS011;4148;47.974;7.824;2023-05-23T05:56:39;33.77;;;24.20;;
8213;SDS011;4148;47.974;7.824;2023-05-23T05:59:08;30.07;;;23.73;;
8213;SDS011;4148;47.974;7.824;2023-05-23T06:01:36;32.23;;;24.53;;
8213;SDS011;4148;47.974;7.824;2023-05-23T06:04:05;36.23;;;24.37;;
8213;SDS011;4148;47.974;7.824;2023-05-23T06:06:33;31.60;;;24.97;;
8213;SDS011;4148;47.974;7.824;2023-05-23T06:09:01;31.30;;;24.63;;
8213;SDS011;4148;47.974;7.824;2023-05-23T06:11:29;35.10;;;25.07;;
8213;SDS011;4148;47.974;7.824;2023-05-23T06:13:57;32.27;;;23.33;;
8213;SDS011;4148;47.974;7.824;2023-05-23T06:16:25;33.13;;;24.73;;
8213;SDS011;4148;47.974;7.824;2023-05-23T06:18:53;35.23;;;24.50;;
8213;SDS011;4148;47.974;7.824;2023-05-23T06:21:22;30.40;;;24.13;;
8213;SDS011;4148;47.974;7.824;2023-05-23T06:23:50;35.03;;;26.30;;
8213;SDS011;4148;47.974;7.824;2023-05-23T06:26:18;33.87;;;25.50;;
8213;SDS011;4148;47.974;7.824;2023-05-23T06:28:46;29.87;;;23.60;;
8213;SDS011;4148;47.974;7.824;2023-05-23T06:31:14;36.23;;;25.60;;
8213;SDS011;4148;47.974;7.824;2023-05-23T06:33:42;32.80;;;24.77;;
8213;SDS011;4148;47.974;7.824;2023-05-23T06:36:10;29.03;;;23.23;;
8213;SDS011;4148;47.974;7.824;2023-05-23T06:38:39;33.77;;;25.40;;
8213;SDS011;4148;47.974;7.824;2023-05-23T06:41:07;33.70;;;25.33;;
8213;SDS011;4148;47.974;7.824;2023-05-23T06:43:35;35.57;;;24.60;;
8213;SDS011;4148;47.974;7.824;2023-05-23T06:46:03;29.47;;;23.17;;
8213;SDS011;4148;47.974;7.824;2023-05-23T06:48:32;30.33;;;22.57;;
8213;SDS011;4148;47.974;7.824;2023-05-23T06:51:00;34.57;;;25.57;;
8213;SDS011;4148;47.974;7.824;2023-05-23T06:53:27;71.87;;;36.93;;
8213;SDS011;4148;47.974;7.824;2023-05-23T06:55:57;40.57;;;28.67;;
8213;SDS011;4148;47.974;7.824;2023-05-23T06:58:24;36.43;;;26.90;;
8213;SDS011;4148;47.974;7.824;2023-05-23T07:00:52;35.43;;;26.70;;
8213;SDS011;4148;47.974;7.824;2023-05-23T07:03:20;37.77;;;26.07;;
8213;SDS011;4148;47.974;7.824;2023-05-23T07:05:48;39.00;;;26.00;;
8213;SDS011;4148;47.974;7.824;2023-05-23T07:08:17;40.33;;;27.30;;
8213;SDS011;4148;47.974;7.824;2023-05-23T07:10:45;30.63;;;24.90;;
8213;SDS011;4148;47.974;7.824;2023-05-23T07:13:14;31.67;;;24.70;;
8213;SDS011;4148;47.974;7.824;2023-05-23T07:15:42;41.37;;;27.30;;
8213;SDS011;4148;47.974;7.824;2023-05-23T07:18:10;41.30;;;26.90;;
8213;SDS011;4148;47.974;7.824;2023-05-23T07:20:38;36.40;;;26.50;;
8213;SDS011;4148;47.974;7.824;2023-05-23T07:23:06;43.47;;;28.97;;
8213;SDS011;4148;47.974;7.824;2023-05-23T07:25:34;35.57;;;25.43;;
8213;SDS011;4148;47.974;7.824;2023-05-23T07:28:05;38.13;;;27.00;;
8213;SDS011;4148;47.974;7.824;2023-05-23T07:30:34;36.50;;;27.97;;
8213;SDS011;4148;47.974;7.824;2023-05-23T07:33:02;38.63;;;29.67;;
8213;SDS011;4148;47.974;7.824;2023-05-23T07:35:30;42.23;;;30.57;;
8213;SDS011;4148;47.974;7.824;2023-05-23T07:37:58;30.63;;;24.70;;
8213;SDS011;4148;47.974;7.824;2023-05-23T07:40:26;44.20;;;27.83;;
8213;SDS011;4148;47.974;7.824;2023-05-23T07:42:54;37.90;;;27.67;;
8213;SDS011;4148;47.974;7.824;2023-05-23T07:45:22;45.90;;;30.07;;
8213;SDS011;4148;47.974;7.824;2023-05-23T07:47:51;37.40;;;29.20;;
8213;SDS011;4148;47.974;7.824;2023-05-23T07:50:19;41.43;;;30.93;;
8213;SDS011;4148;47.974;7.824;2023-05-23T07:52:47;39.30;;;29.93;;
8213;SDS011;4148;47.974;7.824;2023-05-23T07:55:16;41.23;;;29.57;;
8213;SDS011;4148;47.974;7.824;2023-05-23T07:57:44;41.33;;;30.43;;
8213;SDS011;4148;47.974;7.824;2023-05-23T08:00:12;45.03;;;30.63;;
8213;SDS011;4148;47.974;7.824;2023-05-23T08:02:40;43.20;;;30.10;;
8213;SDS011;4148;47.974;7.824;2023-05-23T08:05:10;48.83;;;31.93;;
8213;SDS011;4148;47.974;7.824;2023-05-23T08:07:38;45.03;;;32.50;;
8213;SDS011;4148;47.974;7.824;2023-05-23T08:10:06;41.90;;;29.00;;
8213;SDS011;4148;47.974;7.824;2023-05-23T08:12:35;48.73;;;30.20;;
8213;SDS011;4148;47.974;7.824;2023-05-23T08:15:03;42.20;;;29.90;;
8213;SDS011;4148;47.974;7.824;2023-05-23T08:17:31;39.83;;;29.60;;
8213;SDS011;4148;47.974;7.824;2023-05-23T08:19:59;37.43;;;27.20;;
8213;SDS011;4148;47.974;7.824;2023-05-23T08:22:31;34.60;;;25.20;;
8213;SDS011;4148;47.974;7.824;2023-05-23T08:24:58;40.20;;;28.63;;
8213;SDS011;4148;47.974;7.824;2023-05-23T08:27:28;41.70;;;31.03;;
8213;SDS011;4148;47.974;7.824;2023-05-23T08:29:56;40.70;;;31.80;;
8213;SDS011;4148;47.974;7.824;2023-05-23T08:32:24;41.90;;;32.63;;
8213;SDS011;4148;47.974;7.824;2023-05-23T08:34:52;39.50;;;30.33;;
8213;SDS011;4148;47.974;7.824;2023-05-23T08:37:20;40.40;;;31.13;;
8213;SDS011;4148;47.974;7.824;2023-05-23T08:39:49;40.60;;;31.27;;
8213;SDS011;4148;47.974;7.824;2023-05-23T08:42:18;40.40;;;31.80;;
8213;SDS011;4148;47.974;7.824;2023-05-23T08:44:46;42.00;;;31.13;;
8213;SDS011;4148;47.974;7.824;2023-05-23T08:47:16;40.93;;;29.13;;
8213;SDS011;4148;47.974;7.824;2023-05-23T08:49:45;43.67;;;31.73;;
8213;SDS011;4148;47.974;7.824;2023-05-23T08:52:13;42.53;;;29.53;;
8213;SDS011;4148;47.974;7.824;2023-05-23T08:54:47;40.47;;;31.20;;
8213;SDS011;4148;47.974;7.824;2023-05-23T08:57:17;37.90;;;30.90;;
8213;SDS011;4148;47.974;7.824;2023-05-23T08:59:45;45.77;;;31.67;;
8213;SDS011;4148;47.974;7.824;2023-05-23T09:02:15;40.40;;;30.40;;
8213;SDS011;4148;47.974;7.824;2023-05-23T09:04:44;43.07;;;32.10;;
8213;SDS011;4148;47.974;7.824;2023-05-23T09:07:11;41.70;;;30.87;;
8213;SDS011;4148;47.974;7.824;2023-05-23T09:09:42;45.23;;;31.90;;
8213;SDS011;4148;47.974;7.824;2023-05-23T09:12:12;44.13;;;32.47;;
8213;SDS011;4148;47.974;7.824;2023-05-23T09:14:41;41.10;;;33.27;;
8213;SDS011;4148;47.974;7.824;2023-05-23T09:17:14;47.50;;;32.40;;
8213;SDS011;4148;47.974;7.824;2023-05-23T09:19:42;39.43;;;31.60;;
8213;SDS011;4148;47.974;7.824;2023-05-23T09:22:12;40.63;;;30.43;;
8213;SDS011;4148;47.974;7.824;2023-05-23T09:24:40;41.33;;;33.63;;
8213;SDS011;4148;47.974;7.824;2023-05-23T09:27:07;38.50;;;30.77;;
8213;SDS011;4148;47.974;7.824;2023-05-23T09:29:37;43.03;;;32.93;;
8213;SDS011;4148;47.974;7.824;2023-05-23T09:32:09;47.10;;;32.77;;
8213;SDS011;4148;47.974;7.824;2023-05-23T09:34:39;38.87;;;29.97;;
8213;SDS011;4148;47.974;7.824;2023-05-23T09:37:10;37.70;;;29.13;;
8213;SDS011;4148;47.974;7.824;2023-05-23T09:39:44;39.33;;;30.90;;
8213;SDS011;4148;47.974;7.824;2023-05-23T09:42:17;40.33;;;29.30;;
8213;SDS011;4148;47.974;7.824;2023-05-23T09:44:47;37.67;;;29.73;;
8213;SDS011;4148;47.974;7.824;2023-05-23T09:47:16;37.17;;;28.57;;
8213;SDS011;4148;47.974;7.824;2023-05-23T09:49:44;43.10;;;29.97;;
8213;SDS011;4148;47.974;7.824;2023-05-23T09:52:13;40.57;;;30.70;;
8213;SDS011;4148;47.974;7.824;2023-05-23T09:54:41;38.90;;;29.13;;
8213;SDS011;4148;47.974;7.824;2023-05-23T09:57:09;38.90;;;29.63;;
8213;SDS011;4148;47.974;7.824;2023-05-23T09:59:38;40.47;;;31.63;;
8213;SDS011;4148;47.974;7.824;2023-05-23T10:02:11;37.03;;;27.77;;
8213;SDS011;4148;47.974;7.824;2023-05-23T10:04:39;34.90;;;27.73;;
8213;SDS011;4148;47.974;7.824;2023-05-23T10:07:11;35.87;;;28.77;;
8213;SDS011;4148;47.974;7.824;2023-05-23T10:09:44;34.27;;;25.77;;
8213;SDS011;4148;47.974;7.824;2023-05-23T10:15:06;34.77;;;27.33;;
8213;SDS011;4148;47.974;7.824;2023-05-23T10:17:38;30.63;;;25.30;;
8213;SDS011;4148;47.974;7.824;2023-05-23T10:20:19;28.67;;;23.20;;
8213;SDS011;4148;47.974;7.824;2023-05-23T10:22:53;31.60;;;26.67;;
8213;SDS011;4148;47.974;7.824;2023-05-23T10:25:22;31.40;;;25.87;;
8213;SDS011;4148;47.974;7.824;2023-05-23T10:27:52;32.63;;;25.47;;
8213;SDS011;4148;47.974;7.824;2023-05-23T10:30:25;34.93;;;24.37;;
8213;SDS011;4148;47.974;7.824;2023-05-23T10:32:54;31.23;;;27.60;;
8213;SDS011;4148;47.974;7.824;2023-05-23T10:35:27;28.10;;;23.17;;
8213;SDS011;4148;47.974;7.824;2023-05-23T10:38:06;34.17;;;26.00;;
8213;SDS011;4148;47.974;7.824;2023-05-23T10:40:45;30.13;;;24.40;;
8213;SDS011;4148;47.974;7.824;2023-05-23T10:43:19;31.40;;;23.83;;
8213;SDS011;4148;47.974;7.824;2023-05-23T10:45:55;30.90;;;24.30;;
8213;SDS011;4148;47.974;7.824;2023-05-23T10:48:32;27.77;;;23.40;;
8213;SDS011;4148;47.974;7.824;2023-05-23T10:51:02;32.10;;;25.10;;
8213;SDS011;4148;47.974;7.824;2023-05-23T10:53:31;28.60;;;23.67;;
8213;SDS011;4148;47.974;7.824;2023-05-23T10:56:03;25.77;;;22.83;;
8213;SDS011;4148;47.974;7.824;2023-05-23T10:58:32;30.80;;;24.40;;
8213;SDS011;4148;47.974;7.824;2023-05-23T11:01:04;25.00;;;21.57;;
8213;SDS011;4148;47.974;7.824;2023-05-23T11:03:35;27.73;;;22.87;;
8213;SDS011;4148;47.974;7.824;2023-05-23T11:06:04;25.57;;;21.97;;
8213;SDS011;4148;47.974;7.824;2023-05-23T11:08:35;28.57;;;21.87;;
8213;SDS011;4148;47.974;7.824;2023-05-23T11:11:13;25.70;;;21.47;;
8213;SDS011;4148;47.974;7.824;2023-05-23T11:13:54;24.10;;;20.83;;
8213;SDS011;4148;47.974;7.824;2023-05-23T11:16:26;23.63;;;20.97;;
8213;SDS011;4148;47.974;7.824;2023-05-23T11:21:51;23.73;;;20.53;;
8213;SDS011;4148;47.974;7.824;2023-05-23T11:24:21;23.23;;;18.90;;
8213;SDS011;4148;47.974;7.824;2023-05-23T11:26:52;20.87;;;18.70;;
8213;SDS011;4148;47.974;7.824;2023-05-23T11:29:25;21.70;;;19.50;;
8213;SDS011;4148;47.974;7.824;2023-05-23T11:31:54;21.07;;;18.87;;
8213;SDS011;4148;47.974;7.824;2023-05-23T11:34:25;21.03;;;18.23;;
8213;SDS011;4148;47.974;7.824;2023-05-23T11:36:53;22.00;;;19.20;;
8213;SDS011;4148;47.974;7.824;2023-05-23T11:39:21;26.27;;;20.83;;
8213;SDS011;4148;47.974;7.824;2023-05-23T11:41:57;24.43;;;21.83;;
8213;SDS011;4148;47.974;7.824;2023-05-23T11:44:26;27.40;;;22.03;;
8213;SDS011;4148;47.974;7.824;2023-05-23T11:47:00;25.43;;;20.43;;
8213;SDS011;4148;47.974;7.824;2023-05-23T11:49:30;27.53;;;21.93;;
8213;SDS011;4148;47.974;7.824;2023-05-23T11:52:01;23.07;;;20.50;;
8213;SDS011;4148;47.974;7.824;2023-05-23T11:54:29;23.97;;;20.23;;
8213;SDS011;4148;47.974;7.824;2023-05-23T11:56:57;23.20;;;20.87;;
8213;SDS011;4148;47.974;7.824;2023-05-23T11:59:26;23.67;;;18.97;;
8213;SDS011;4148;47.974;7.824;2023-05-23T12:01:54;21.53;;;19.27;;
8213;SDS011;4148;47.974;7.824;2023-05-23T12:04:23;23.37;;;19.57;;
8213;SDS011;4148;47.974;7.824;2023-05-23T12:06:54;21.80;;;18.87;;
8213;SDS011;4148;47.974;7.824;2023-05-23T12:09:22;22.50;;;19.00;;
8213;SDS011;4148;47.974;7.824;2023-05-23T12:11:50;22.03;;;18.23;;
8213;SDS011;4148;47.974;7.824;2023-05-23T12:14:18;22.40;;;19.03;;
8213;SDS011;4148;47.974;7.824;2023-05-23T12:16:47;21.27;;;19.10;;
8213;SDS011;4148;47.974;7.824;2023-05-23T12:19:15;19.87;;;17.87;;
8213;SDS011;4148;47.974;7.824;2023-05-23T12:21:44;21.70;;;19.40;;
8213;SDS011;4148;47.974;7.824;2023-05-23T12:24:15;20.03;;;17.93;;
8213;SDS011;4148;47.974;7.824;2023-05-23T12:26:48;18.60;;;16.70;;
8213;SDS011;4148;47.974;7.824;2023-05-23T12:29:17;22.60;;;20.13;;
8213;SDS011;4148;47.974;7.824;2023-05-23T12:31:49;23.13;;;19.83;;
8213;SDS011;4148;47.974;7.824;2023-05-23T12:34:20;26.20;;;19.63;;
8213;SDS011;4148;47.974;7.824;2023-05-23T12:36:48;24.40;;;18.07;;
8213;SDS011;4148;47.974;7.824;2023-05-23T12:39:29;19.97;;;17.80;;
8213;SDS011;4148;47.974;7.824;2023-05-23T12:42:05;22.97;;;18.97;;
8213;SDS011;4148;47.974;7.824;2023-05-23T12:44:34;20.03;;;16.50;;
8213;SDS011;4148;47.974;7.824;2023-05-23T12:47:02;19.80;;;16.73;;
8213;SDS011;4148;47.974;7.824;2023-05-23T12:49:31;24.77;;;16.67;;
8213;SDS011;4148;47.974;7.824;2023-05-23T12:51:58;18.80;;;15.83;;
8213;SDS011;4148;47.974;7.824;2023-05-23T12:54:26;17.90;;;15.23;;
8213;SDS011;4148;47.974;7.824;2023-05-23T12:56:55;16.87;;;15.07;;
8213;SDS011;4148;47.974;7.824;2023-05-23T12:59:23;17.67;;;14.97;;
8213;SDS011;4148;47.974;7.824;2023-05-23T13:01:51;16.77;;;15.07;;
8213;SDS011;4148;47.974;7.824;2023-05-23T13:04:20;15.80;;;14.10;;
8213;SDS011;4148;47.974;7.824;2023-05-23T13:06:51;18.13;;;14.60;;
8213;SDS011;4148;47.974;7.824;2023-05-23T13:09:19;16.80;;;13.07;;
8213;SDS011;4148;47.974;7.824;2023-05-23T13:11:47;17.77;;;11.83;;
8213;SDS011;4148;47.974;7.824;2023-05-23T13:14:17;15.00;;;13.40;;
8213;SDS011;4148;47.974;7.824;2023-05-23T13:16:45;15.53;;;12.60;;
8213;SDS011;4148;47.974;7.824;2023-05-23T13:19:13;14.30;;;12.80;;
8213;SDS011;4148;47.974;7.824;2023-05-23T13:21:41;13.30;;;11.93;;
8213;SDS011;4148;47.974;7.824;2023-05-23T13:24:10;14.53;;;12.20;;
8213;SDS011;4148;47.974;7.824;2023-05-23T13:26:38;14.50;;;13.00;;
8213;SDS011;4148;47.974;7.824;2023-05-23T13:29:06;13.23;;;11.93;;
8213;SDS011;4148;47.974;7.824;2023-05-23T13:31:35;14.07;;;12.60;;
8213;SDS011;4148;47.974;7.824;2023-05-23T13:34:03;16.57;;;12.13;;
8213;SDS011;4148;47.974;7.824;2023-05-23T13:36:31;13.70;;;11.60;;
8213;SDS011;4148;47.974;7.824;2023-05-23T13:39:01;13.97;;;11.87;;
8213;SDS011;4148;47.974;7.824;2023-05-23T13:41:32;13.57;;;11.00;;
8213;SDS011;4148;47.974;7.824;2023-05-23T13:43:59;12.50;;;11.20;;
8213;SDS011;4148;47.974;7.824;2023-05-23T13:46:27;11.27;;;10.07;;
8213;SDS011;4148;47.974;7.824;2023-05-23T13:48:57;15.07;;;11.77;;
8213;SDS011;4148;47.974;7.824;2023-05-23T13:51:25;13.23;;;11.93;;
8213;SDS011;4148;47.974;7.824;2023-05-23T13:53:53;13.40;;;10.07;;
8213;SDS011;4148;47.974;7.824;2023-05-23T13:56:20;13.30;;;11.90;;
8213;SDS011;4148;47.974;7.824;2023-05-23T13:58:49;11.93;;;10.63;;
8213;SDS011;4148;47.974;7.824;2023-05-23T14:01:17;15.03;;;11.97;;
8213;SDS011;4148;47.974;7.824;2023-05-23T14:03:45;12.40;;;11.10;;
8213;SDS011;4148;47.974;7.824;2023-05-23T14:06:14;11.23;;;10.03;;
8213;SDS011;4148;47.974;7.824;2023-05-23T14:08:42;11.80;;;10.47;;
8213;SDS011;4148;47.974;7.824;2023-05-23T14:11:10;13.03;;;11.27;;
8213;SDS011;4148;47.974;7.824;2023-05-23T14:13:38;11.77;;;10.57;;
8213;SDS011;4148;47.974;7.824;2023-05-23T14:16:06;13.33;;;10.33;;
8213;SDS011;4148;47.974;7.824;2023-05-23T14:18:34;12.00;;;9.57;;
8213;SDS011;4148;47.974;7.824;2023-05-23T14:21:02;12.53;;;10.03;;
8213;SDS011;4148;47.974;7.824;2023-05-23T14:23:31;12.00;;;10.23;;
8213;SDS011;4148;47.974;7.824;2023-05-23T14:25:59;13.10;;;9.70;;
8213;SDS011;4148;47.974;7.824;2023-05-23T14:28:27;10.40;;;9.03;;
8213;SDS011;4148;47.974;7.824;2023-05-23T14:30:55;12.60;;;10.17;;
8213;SDS011;4148;47.974;7.824;2023-05-23T14:33:24;10.80;;;9.70;;
8213;SDS011;4148;47.974;7.824;2023-05-23T14:35:52;8.93;;;8.10;;
8213;SDS011;4148;47.974;7.824;2023-05-23T14:38:20;9.90;;;8.90;;
8213;SDS011;4148;47.974;7.824;2023-05-23T14:40:49;9.97;;;8.97;;
8213;SDS011;4148;47.974;7.824;2023-05-23T14:43:17;10.60;;;9.50;;
8213;SDS011;4148;47.974;7.824;2023-05-23T14:45:45;10.07;;;8.97;;
8213;SDS011;4148;47.974;7.824;2023-05-23T14:48:13;12.10;;;8.87;;
8213;SDS011;4148;47.974;7.824;2023-05-23T14:50:41;9.27;;;8.30;;
8213;SDS011;4148;47.974;7.824;2023-05-23T14:53:09;10.23;;;9.03;;
8213;SDS011;4148;47.974;7.824;2023-05-23T14:55:37;9.53;;;8.50;;
8213;SDS011;4148;47.974;7.824;2023-05-23T14:58:06;9.97;;;8.97;;
8213;SDS011;4148;47.974;7.824;2023-05-23T15:00:34;9.13;;;8.23;;
8213;SDS011;4148;47.974;7.824;2023-05-23T15:03:02;9.10;;;8.20;;
8213;SDS011;4148;47.974;7.824;2023-05-23T15:05:30;9.60;;;8.60;;